首页
METAR-TAF:

METAR-TAF

机场 :

真纳国际机场

卡拉奇, 巴基斯坦

纬度: 24-54N, 经度: 067-08E, 海拔: 21米

当前天气观测

该预报发布于37分钟前的23:25 UTC
风速12节,风向西转西南
温度 29°C
湿度 70%
气压 1000 hPa
能見度: 6000
散云层高于2000英尺

METAR: OPKC 192325Z 25012KT 6000 SCT020 29/23 Q1000 NOSIG

时间: 05:02 (00:02 UTC)

预报

该预报发布于2小时和2分钟前的22:00 UTC
预报有效从20日的 00点(UTC)到 21日的 06点(UTC)
风速10节,风向西南,有时为20节阵风
能見度: 6000
散云层高于2000英尺
短暂存在
从 20日的 09点(UTC)到 20日的 13点(UTC)
风速15节,风向西南,有时为25节阵风
能見度: 4000
少量云层高于3000英尺
高吹尘
从 20日的 1800点(UTC)
风速8节,风向西转西南,有时为18节阵风
能見度: 5000
散云层高于2000英尺

TAF: OPKC 192200Z 2000/2106 23010G20KT 6000 SCT020 TEMPO 2009/2013 23015G25KT 4000 BLDU FEW030 FM201800 24008G18KT 5000 HZ SCT020

超过4000个机场的气象观测和天气预报(METAR&TAF报告)。

可查询的气象台以黄色和红色小点在地图上表示。

将鼠标移到小点上方,可查看气象台名称。

然后点击查看天气观测和预报。

如需切换地图:点击带黑十字的绿色按钮放大地图;点击带横线的绿色按钮缩小地图;或者点击绿色箭头查看邻近地区的地图。


METAR-TAF: